createdAt,value
2023-01-23T00:01:29.103Z,56.28
2023-01-23T00:03:57.445Z,51.97
2023-01-23T00:06:26.346Z,53.83
2023-01-23T00:08:56.220Z,52.15
2023-01-23T00:11:26.530Z,56.20
2023-01-23T00:13:54.274Z,53.47
2023-01-23T00:16:23.644Z,49.38
2023-01-23T00:18:52.298Z,52.50
2023-01-23T00:21:22.425Z,46.75
2023-01-23T00:23:52.537Z,47.80
2023-01-23T00:26:25.838Z,52.67
2023-01-23T00:28:54.363Z,50.33
2023-01-23T00:31:24.746Z,53.03
2023-01-23T00:33:55.779Z,47.45
2023-01-23T00:36:24.234Z,47.03
2023-01-23T00:38:51.952Z,47.05
2023-01-23T00:41:20.958Z,48.15
2023-01-23T00:43:50.319Z,44.85
2023-01-23T00:46:17.966Z,49.30
2023-01-23T00:48:45.680Z,42.70
2023-01-23T00:51:13.715Z,45.40
2023-01-23T00:53:41.425Z,45.25
2023-01-23T00:56:09.391Z,42.20
2023-01-23T00:58:39.534Z,40.97
2023-01-23T01:01:07.298Z,49.13
2023-01-23T01:03:35.605Z,47.00
2023-01-23T01:06:03.838Z,44.85
2023-01-23T01:08:31.656Z,44.47
2023-01-23T01:10:59.351Z,43.38
2023-01-23T01:13:27.776Z,43.00
2023-01-23T01:15:56.933Z,46.00
2023-01-23T01:18:25.091Z,40.50
2023-01-23T01:20:52.772Z,45.42
2023-01-23T01:23:21.071Z,36.88
2023-01-23T01:25:48.840Z,40.97
2023-01-23T01:28:16.653Z,44.17
2023-01-23T01:30:44.346Z,41.85
2023-01-23T01:33:13.445Z,40.20
2023-01-23T01:35:42.243Z,40.47
2023-01-23T01:38:10.083Z,46.00
2023-01-23T01:40:38.858Z,41.78
2023-01-23T01:43:08.505Z,42.15
2023-01-23T01:46:09.218Z,46.28
2023-01-23T01:48:43.718Z,43.08
2023-01-23T01:51:17.936Z,41.65
2023-01-23T01:53:50.084Z,44.40
2023-01-23T01:56:19.634Z,41.53
2023-01-23T01:58:50.283Z,40.60
2023-01-23T02:01:18.809Z,42.15
2023-01-23T02:03:49.351Z,40.63
2023-01-23T02:06:17.104Z,42.88
2023-01-23T02:08:52.349Z,39.22
2023-01-23T02:11:20.040Z,40.42
2023-01-23T02:13:47.707Z,36.83
2023-01-23T02:16:19.294Z,38.72
2023-01-23T02:18:51.218Z,38.33
2023-01-23T02:21:25.146Z,36.88
2023-01-23T02:24:04.300Z,34.55
2023-01-23T02:26:36.799Z,37.60
2023-01-23T02:31:33.245Z,39.22
2023-01-23T02:34:01.437Z,34.08
2023-01-23T02:36:30.990Z,35.72
2023-01-23T02:39:04.905Z,36.30
2023-01-23T02:41:37.647Z,34.85
2023-01-23T02:44:10.273Z,36.67
2023-01-23T02:46:37.965Z,34.08
2023-01-23T02:49:05.754Z,34.42
2023-01-23T02:51:33.486Z,36.25
2023-01-23T02:54:01.620Z,33.97
2023-01-23T02:56:29.376Z,35.17
2023-01-23T02:59:16.059Z,35.20
2023-01-23T03:01:43.831Z,30.40
2023-01-23T03:04:11.621Z,33.05
2023-01-23T03:06:39.375Z,39.13
2023-01-23T03:09:10.312Z,33.90
2023-01-23T03:11:39.813Z,38.00
2023-01-23T03:14:10.734Z,35.88
2023-01-23T03:16:39.082Z,36.75
2023-01-23T03:19:09.305Z,36.97
2023-01-23T03:21:40.265Z,39.05
2023-01-23T03:24:09.165Z,39.83
2023-01-23T03:26:39.467Z,34.80
2023-01-23T03:29:26.308Z,38.42
2023-01-23T03:31:54.017Z,34.10
2023-01-23T03:34:25.422Z,36.35
2023-01-23T03:36:53.128Z,35.75
2023-01-23T03:39:38.327Z,33.78
2023-01-23T03:42:06.021Z,35.67
2023-01-23T03:44:35.178Z,38.08
2023-01-23T03:47:03.223Z,33.00
2023-01-23T03:49:31.169Z,37.72
2023-01-23T03:51:58.912Z,36.30
2023-01-23T03:54:26.771Z,35.78
2023-01-23T03:56:55.409Z,37.88
2023-01-23T03:59:23.127Z,36.47
2023-01-23T04:01:52.225Z,37.85
2023-01-23T04:04:19.933Z,32.80
2023-01-23T04:06:47.689Z,35.72
2023-01-23T04:09:15.375Z,34.33
2023-01-23T04:11:43.029Z,38.05
2023-01-23T04:14:10.698Z,37.90
2023-01-23T04:16:38.347Z,36.53
2023-01-23T04:19:07.408Z,31.98
2023-01-23T04:21:35.044Z,33.05
2023-01-23T04:24:02.748Z,34.08
2023-01-23T04:26:30.481Z,35.13
2023-01-23T04:28:58.139Z,37.58
2023-01-23T04:31:25.904Z,32.17
2023-01-23T04:33:53.602Z,32.78
2023-01-23T04:36:22.778Z,32.58
2023-01-23T04:38:50.419Z,34.35
2023-01-23T04:41:21.354Z,33.00
2023-01-23T04:43:49.047Z,32.60
2023-01-23T04:46:16.936Z,36.45
2023-01-23T04:48:44.746Z,31.25
2023-01-23T04:51:12.910Z,32.20
2023-01-23T04:53:41.903Z,30.13
2023-01-23T04:56:09.601Z,31.73
2023-01-23T04:58:37.269Z,30.60
2023-01-23T05:01:06.690Z,33.05
2023-01-23T05:03:35.039Z,35.97
2023-01-23T05:06:02.982Z,31.83
2023-01-23T05:08:30.676Z,31.08
2023-01-23T05:10:59.703Z,31.77
2023-01-23T05:13:27.426Z,33.20
2023-01-23T05:15:55.075Z,30.77
2023-01-23T05:18:22.799Z,29.17
2023-01-23T05:20:50.450Z,31.83
2023-01-23T05:23:18.297Z,32.95
2023-01-23T05:25:46.557Z,29.08
2023-01-23T05:28:15.732Z,26.95
2023-01-23T05:30:43.573Z,30.55
2023-01-23T05:33:11.361Z,30.20
2023-01-23T05:35:40.200Z,30.63
2023-01-23T05:38:07.867Z,28.20
2023-01-23T05:40:35.508Z,28.63
2023-01-23T05:43:03.127Z,32.67
2023-01-23T05:45:32.160Z,29.17
2023-01-23T05:47:59.795Z,28.85
2023-01-23T05:50:27.534Z,29.30
2023-01-23T05:52:55.168Z,27.83
2023-01-23T05:55:22.967Z,29.45
2023-01-23T05:57:50.669Z,27.40
2023-01-23T06:00:19.789Z,27.80
2023-01-23T06:02:49.078Z,29.23
2023-01-23T06:05:16.822Z,30.38
2023-01-23T06:07:44.510Z,28.67
2023-01-23T06:10:12.299Z,28.05
2023-01-23T06:12:39.955Z,28.52
2023-01-23T06:15:08.371Z,30.15
2023-01-23T06:17:36.223Z,31.10
2023-01-23T06:20:06.274Z,27.98
2023-01-23T06:22:33.972Z,30.67
2023-01-23T06:25:01.625Z,31.30
2023-01-23T06:27:29.295Z,29.02
2023-01-23T06:29:56.948Z,30.40
2023-01-23T06:32:24.768Z,29.67
2023-01-23T06:34:52.415Z,28.15
2023-01-23T06:37:21.470Z,29.90
2023-01-23T06:39:49.157Z,29.35
2023-01-23T06:42:16.898Z,30.02
2023-01-23T06:44:44.905Z,29.00
2023-01-23T06:47:12.535Z,31.95
2023-01-23T06:49:40.299Z,30.17
2023-01-23T06:52:07.933Z,29.58
2023-01-23T06:54:37.095Z,29.65
2023-01-23T06:57:04.852Z,31.13
2023-01-23T06:59:33.238Z,30.00
2023-01-23T07:02:01.095Z,28.95
2023-01-23T07:04:28.868Z,29.65
2023-01-23T07:06:56.615Z,30.00
2023-01-23T07:09:24.315Z,31.95
2023-01-23T07:11:53.459Z,29.02
2023-01-23T07:14:21.169Z,32.13
2023-01-23T07:16:49.011Z,28.17
2023-01-23T07:19:16.684Z,30.55
2023-01-23T07:21:44.430Z,31.35
2023-01-23T07:24:12.173Z,30.20
2023-01-23T07:26:39.879Z,29.02
2023-01-23T07:29:09.855Z,28.88
2023-01-23T07:31:37.852Z,26.40
2023-01-23T07:34:05.656Z,31.98
2023-01-23T07:36:33.363Z,28.02
2023-01-23T07:39:01.020Z,28.30
2023-01-23T07:41:28.682Z,25.42
2023-01-23T07:43:56.441Z,28.05
2023-01-23T07:46:26.806Z,29.92
2023-01-23T07:48:56.180Z,26.23
2023-01-23T07:51:23.915Z,25.70
2023-01-23T07:53:51.677Z,27.95
2023-01-23T07:56:19.792Z,26.73
2023-01-23T07:58:51.623Z,26.38
2023-01-23T08:01:20.278Z,25.65
2023-01-23T08:03:49.482Z,25.13
2023-01-23T08:06:17.461Z,26.30
2023-01-23T08:08:45.253Z,23.83
2023-01-23T08:11:13.763Z,24.23
2023-01-23T08:13:41.621Z,25.13
2023-01-23T08:16:12.035Z,24.95
2023-01-23T08:18:41.195Z,24.52
2023-01-23T08:21:11.269Z,24.05
2023-01-23T08:23:40.746Z,23.60
2023-01-23T08:26:09.732Z,25.58
2023-01-23T08:28:37.430Z,24.65
2023-01-23T08:31:07.217Z,23.90
2023-01-23T08:33:35.834Z,27.63
2023-01-23T08:36:04.752Z,23.10
2023-01-23T08:38:33.912Z,24.17
2023-01-23T08:41:03.609Z,23.20
2023-01-23T08:43:31.931Z,21.83
2023-01-23T08:46:00.410Z,25.25
2023-01-23T08:48:29.060Z,24.35
2023-01-23T08:51:01.877Z,25.42
2023-01-23T08:53:30.056Z,25.23
2023-01-23T08:56:02.015Z,22.90
2023-01-23T08:58:29.741Z,23.98
2023-01-23T09:00:57.810Z,23.65
2023-01-23T09:03:26.370Z,24.70
2023-01-23T09:05:54.371Z,24.48
2023-01-23T09:08:22.172Z,24.17
2023-01-23T09:10:49.876Z,26.67
2023-01-23T09:13:19.663Z,28.95
2023-01-23T09:15:47.878Z,29.52
2023-01-23T09:18:15.608Z,29.58
2023-01-23T09:20:43.371Z,30.10
2023-01-23T09:23:11.086Z,35.10
2023-01-23T09:25:39.021Z,35.80
2023-01-23T09:28:06.779Z,36.03
2023-01-23T09:30:35.834Z,34.50
2023-01-23T09:33:03.594Z,36.55
2023-01-23T09:35:32.248Z,32.88
2023-01-23T09:38:04.641Z,31.40
2023-01-23T09:40:35.789Z,33.08
2023-01-23T09:43:13.824Z,29.45
2023-01-23T09:45:48.188Z,30.75
2023-01-23T09:48:22.331Z,30.25
2023-01-23T09:50:57.443Z,27.77
2023-01-23T09:53:31.180Z,30.55
2023-01-23T09:56:04.002Z,28.13
2023-01-23T09:58:38.275Z,26.33
2023-01-23T10:01:12.396Z,28.00
2023-01-23T10:03:48.160Z,25.77
2023-01-23T10:06:23.420Z,39.42
2023-01-23T10:09:05.270Z,28.67
2023-01-23T10:11:42.770Z,26.77
2023-01-23T10:14:28.052Z,22.95
2023-01-23T10:17:07.053Z,23.20
2023-01-23T10:19:46.973Z,22.45
2023-01-23T10:22:29.441Z,24.33
2023-01-23T10:24:59.310Z,23.13
2023-01-23T10:27:34.718Z,20.00
2023-01-23T10:30:05.137Z,20.30
2023-01-23T10:32:52.384Z,20.30
2023-01-23T10:35:23.474Z,18.17
2023-01-23T10:37:57.673Z,17.95
2023-01-23T10:40:39.892Z,16.20
2023-01-23T10:43:13.501Z,16.33
2023-01-23T10:45:42.081Z,14.10
2023-01-23T10:48:42.478Z,15.38
2023-01-23T10:51:31.225Z,18.67
2023-01-23T10:54:31.352Z,14.45
2023-01-23T10:57:02.351Z,16.52
2023-01-23T10:59:34.040Z,15.43
2023-01-23T11:02:18.193Z,15.82
2023-01-23T11:04:49.485Z,15.63
2023-01-23T11:07:18.633Z,18.20
2023-01-23T11:09:48.797Z,15.45
2023-01-23T11:12:19.528Z,38.25
2023-01-23T11:14:47.280Z,16.27
2023-01-23T11:17:18.666Z,17.90
2023-01-23T11:19:49.873Z,19.15
2023-01-23T11:22:33.841Z,20.48
2023-01-23T11:25:24.423Z,27.10
2023-01-23T11:27:58.765Z,20.00
2023-01-23T11:30:35.199Z,17.45
2023-01-23T11:33:12.691Z,17.75
2023-01-23T11:35:52.006Z,15.18
2023-01-23T11:38:30.727Z,14.15
2023-01-23T11:40:58.987Z,13.63
2023-01-23T11:43:26.731Z,20.08
2023-01-23T11:46:19.721Z,21.65
2023-01-23T11:49:01.183Z,13.80
2023-01-23T11:51:37.504Z,14.43
2023-01-23T11:54:21.608Z,15.25
2023-01-23T11:57:03.445Z,11.07
2023-01-23T12:00:06.763Z,18.13
2023-01-23T12:02:56.056Z,15.73
2023-01-23T12:05:49.675Z,11.07
2023-01-23T12:08:32.501Z,10.95
2023-01-23T12:11:12.994Z,21.40
2023-01-23T12:13:57.447Z,17.25
2023-01-23T12:16:34.538Z,57.42
2023-01-23T12:19:15.869Z,12.77
2023-01-23T12:21:48.984Z,19.45
2023-01-23T12:24:33.054Z,15.27
2023-01-23T12:27:08.183Z,16.17
2023-01-23T12:30:00.001Z,16.15
2023-01-23T12:32:44.791Z,14.07
2023-01-23T12:35:30.864Z,17.17
2023-01-23T12:38:14.199Z,15.32
2023-01-23T12:40:46.785Z,16.40
2023-01-23T12:43:19.703Z,18.20
2023-01-23T12:45:52.002Z,15.43
2023-01-23T12:48:28.507Z,16.85
2023-01-23T12:51:02.052Z,14.38
2023-01-23T12:53:36.013Z,16.38
2023-01-23T12:56:08.836Z,16.27
2023-01-23T12:58:41.583Z,18.45
2023-01-23T13:01:24.581Z,18.52
2023-01-23T13:04:10.386Z,15.93
2023-01-23T13:06:58.911Z,15.95
2023-01-23T13:09:36.606Z,18.13
2023-01-23T13:12:21.530Z,17.13
2023-01-23T13:15:12.719Z,22.83
2023-01-23T13:17:46.105Z,17.00
2023-01-23T13:20:44.363Z,16.85
2023-01-23T13:23:33.644Z,15.30
2023-01-23T13:26:28.915Z,13.90
2023-01-23T13:29:02.119Z,14.60
2023-01-23T13:31:42.497Z,15.43
2023-01-23T13:34:39.183Z,15.63
2023-01-23T13:37:47.451Z,15.88
2023-01-23T13:40:19.245Z,18.55
2023-01-23T13:42:46.957Z,17.50
2023-01-23T13:45:50.604Z,21.27
2023-01-23T14:24:22.843Z,18.45
2023-01-23T14:26:52.634Z,21.98
2023-01-23T14:29:27.107Z,18.23
2023-01-23T14:31:55.990Z,28.33
2023-01-23T14:34:25.282Z,16.85
2023-01-23T14:36:56.701Z,19.05
2023-01-23T14:39:29.309Z,17.45
2023-01-23T14:42:02.354Z,20.17
2023-01-23T14:44:35.806Z,18.20
2023-01-23T14:47:05.339Z,21.23
2023-01-23T14:49:37.481Z,19.35
2023-01-23T14:52:07.387Z,18.90
2023-01-23T14:54:37.903Z,18.85
2023-01-23T14:57:10.232Z,18.30
2023-01-23T14:59:40.021Z,19.05
2023-01-23T15:02:27.003Z,21.10
2023-01-23T15:05:18.192Z,27.20
2023-01-23T15:07:47.681Z,25.48
2023-01-23T15:10:20.463Z,22.15
2023-01-23T15:12:51.159Z,19.67
2023-01-23T15:15:21.171Z,20.30
2023-01-23T15:17:49.412Z,18.58
2023-01-23T15:20:32.073Z,22.67
2023-01-23T15:25:43.341Z,21.23
2023-01-23T15:28:39.725Z,20.70
2023-01-23T15:31:22.099Z,18.83
2023-01-23T15:33:49.844Z,25.48
2023-01-23T15:36:26.434Z,27.42
2023-01-23T15:38:54.645Z,23.95
2023-01-23T15:41:40.706Z,21.35
2023-01-23T15:44:14.686Z,22.75
2023-01-23T15:46:42.563Z,21.30
2023-01-23T15:49:23.588Z,22.95
2023-01-23T15:51:52.944Z,22.35
2023-01-23T15:54:27.665Z,23.65
2023-01-23T15:57:07.129Z,24.40
2023-01-23T15:59:36.546Z,23.48
2023-01-23T16:02:04.605Z,21.52
2023-01-23T16:04:32.443Z,19.95
2023-01-23T16:07:04.204Z,21.92
2023-01-23T16:09:35.879Z,28.55
2023-01-23T16:12:05.638Z,25.45
2023-01-23T16:14:33.435Z,22.77
2023-01-23T16:17:15.290Z,29.83
2023-01-23T16:19:44.359Z,22.65
2023-01-23T16:22:15.468Z,22.55
2023-01-23T16:24:43.834Z,37.50
2023-01-23T16:27:18.923Z,23.23
2023-01-23T16:29:49.373Z,22.23
2023-01-23T16:32:17.539Z,24.77
2023-01-23T16:34:45.569Z,24.05
2023-01-23T16:37:16.431Z,31.30
2023-01-23T16:39:45.981Z,24.85
2023-01-23T16:42:22.580Z,24.60
2023-01-23T16:44:50.940Z,26.20
2023-01-23T16:47:18.879Z,26.50
2023-01-23T16:49:52.538Z,26.63
2023-01-23T16:52:23.333Z,26.50
2023-01-23T16:54:53.613Z,27.70
2023-01-23T16:57:23.304Z,24.27
2023-01-23T16:59:51.584Z,29.88
2023-01-23T17:02:22.849Z,26.98
2023-01-23T17:04:50.918Z,34.45
2023-01-23T17:07:20.411Z,29.92
2023-01-23T17:09:49.230Z,31.38
2023-01-23T17:12:19.324Z,26.55
2023-01-23T17:14:49.598Z,28.10
2023-01-23T17:17:23.452Z,24.77
2023-01-23T17:19:51.215Z,31.35
2023-01-23T17:22:24.004Z,27.48
2023-01-23T17:24:51.808Z,96.18
2023-01-23T17:27:19.606Z,28.02
2023-01-23T17:29:49.160Z,29.70
2023-01-23T17:32:25.935Z,29.25
2023-01-23T17:34:53.654Z,32.38
2023-01-23T17:37:24.104Z,32.58
2023-01-23T17:39:51.911Z,29.77
2023-01-23T17:42:19.603Z,32.60
2023-01-23T17:44:48.773Z,31.05
2023-01-23T17:47:17.332Z,28.15
2023-01-23T17:49:47.962Z,28.65
2023-01-23T17:52:15.691Z,28.60
2023-01-23T17:54:43.395Z,28.45
2023-01-23T17:57:11.385Z,30.13
2023-01-23T17:59:39.075Z,29.58
2023-01-23T18:02:24.520Z,25.40
2023-01-23T18:05:00.732Z,23.60
2023-01-23T18:07:28.525Z,22.70
2023-01-23T18:09:56.276Z,22.10
2023-01-23T18:12:31.681Z,21.92
2023-01-23T18:15:11.434Z,24.20
2023-01-23T18:17:54.262Z,21.85
2023-01-23T18:20:25.310Z,19.48
2023-01-23T18:22:53.322Z,21.10
2023-01-23T18:25:24.045Z,18.58
2023-01-23T18:27:55.069Z,21.25
2023-01-23T18:30:44.272Z,17.77
2023-01-23T18:33:33.810Z,18.65
2023-01-23T18:36:18.259Z,17.65
2023-01-23T18:39:11.037Z,15.40
2023-01-23T18:41:43.578Z,20.15
2023-01-23T18:44:17.092Z,13.93
2023-01-23T18:46:45.217Z,15.70
2023-01-23T18:49:27.686Z,15.98
2023-01-23T18:52:05.626Z,15.55
2023-01-23T18:54:42.011Z,17.70
2023-01-23T18:57:23.405Z,17.27
2023-01-23T19:00:02.166Z,16.15
2023-01-23T19:02:36.582Z,17.50
2023-01-23T19:05:23.203Z,19.83
2023-01-23T19:07:51.483Z,18.70
2023-01-23T19:10:21.366Z,17.10
2023-01-23T19:13:01.155Z,19.80
2023-01-23T19:15:34.683Z,17.35
2023-01-23T19:18:13.340Z,17.73
2023-01-23T19:20:48.228Z,20.83
2023-01-23T19:23:28.751Z,18.35
2023-01-23T19:25:56.925Z,19.77
2023-01-23T19:28:25.253Z,21.23
2023-01-23T19:30:53.829Z,22.83
2023-01-23T19:33:22.523Z,23.83
2023-01-23T19:35:54.852Z,24.95
2023-01-23T19:38:23.532Z,25.45
2023-01-23T19:40:51.479Z,26.38
2023-01-23T19:43:19.575Z,27.20
2023-01-23T19:45:47.688Z,27.55
2023-01-23T19:48:15.581Z,27.00
2023-01-23T19:50:44.035Z,25.98
2023-01-23T19:53:14.809Z,26.77
2023-01-23T19:55:42.626Z,22.50
2023-01-23T19:58:10.491Z,25.88
2023-01-23T20:00:38.303Z,25.88
2023-01-23T20:03:06.194Z,25.42
2023-01-23T20:05:34.073Z,29.20
2023-01-23T20:08:02.062Z,23.48
2023-01-23T20:10:31.205Z,23.92
2023-01-23T20:12:59.006Z,21.50
2023-01-23T20:15:27.612Z,23.88
2023-01-23T20:17:55.644Z,22.83
2023-01-23T20:20:24.081Z,23.50
2023-01-23T20:22:51.995Z,25.20
2023-01-23T20:25:20.039Z,22.95
2023-01-23T20:27:49.564Z,25.10
2023-01-23T20:30:19.909Z,25.08
2023-01-23T20:32:47.881Z,24.70
2023-01-23T20:35:15.710Z,24.33
2023-01-23T20:37:43.365Z,26.50
2023-01-23T20:40:12.394Z,27.33
2023-01-23T20:42:40.867Z,27.85
2023-01-23T20:45:10.957Z,27.33
2023-01-23T20:47:38.744Z,25.08
2023-01-23T20:50:07.180Z,23.55
2023-01-23T20:52:52.571Z,24.55
2023-01-23T20:55:20.858Z,24.17
2023-01-23T20:58:06.053Z,25.38
2023-01-23T21:00:35.145Z,25.08
2023-01-23T21:03:02.986Z,20.75
2023-01-23T21:05:30.753Z,18.55
2023-01-23T21:07:58.515Z,17.60
2023-01-23T21:10:27.991Z,34.92
2023-01-23T21:12:55.816Z,19.65
2023-01-23T21:15:23.926Z,20.40
2023-01-23T21:17:53.191Z,19.83
2023-01-23T21:20:21.062Z,37.03
2023-01-23T21:22:55.919Z,20.23
2023-01-23T21:25:25.483Z,17.85
2023-01-23T21:27:53.199Z,18.45
2023-01-23T21:30:21.238Z,18.38
2023-01-23T21:32:50.384Z,19.27
2023-01-23T21:35:19.902Z,18.75
2023-01-23T21:38:00.214Z,17.42
2023-01-23T21:40:27.976Z,19.75
2023-01-23T21:42:55.724Z,18.85
2023-01-23T21:45:23.502Z,19.50
2023-01-23T21:47:51.218Z,20.85
2023-01-23T21:50:24.378Z,18.92
2023-01-23T21:52:52.175Z,19.05
2023-01-23T21:55:20.239Z,17.27
2023-01-23T21:57:48.180Z,17.90
2023-01-23T22:00:33.820Z,17.10
2023-01-23T22:03:01.681Z,17.33
2023-01-23T22:05:30.791Z,15.63
2023-01-23T22:07:58.484Z,16.02
2023-01-23T22:10:26.268Z,16.98
2023-01-23T22:12:53.953Z,16.60
2023-01-23T22:15:21.815Z,20.55
2023-01-23T22:17:49.628Z,16.27
2023-01-23T22:20:18.249Z,16.80
2023-01-23T22:22:47.278Z,18.23
2023-01-23T22:25:14.942Z,17.73
2023-01-23T22:27:42.624Z,19.33
2023-01-23T22:30:11.345Z,17.73
2023-01-23T22:32:39.055Z,18.13
2023-01-23T22:35:09.275Z,19.40
2023-01-23T22:37:38.120Z,19.00
2023-01-23T22:40:08.997Z,19.95
2023-01-23T22:42:37.057Z,20.77
2023-01-23T22:45:05.328Z,20.98
2023-01-23T22:47:33.029Z,19.67
2023-01-23T22:50:00.659Z,20.65
2023-01-23T22:52:28.357Z,23.13
2023-01-23T22:54:56.026Z,22.63
2023-01-23T22:57:25.105Z,20.80
2023-01-23T22:59:52.766Z,22.42
2023-01-23T23:02:20.423Z,22.10
2023-01-23T23:04:49.896Z,23.23
2023-01-23T23:07:17.763Z,22.55
2023-01-23T23:09:46.074Z,24.83
2023-01-23T23:12:14.352Z,25.33
2023-01-23T23:14:43.440Z,26.30
2023-01-23T23:17:11.163Z,23.90
2023-01-23T23:19:38.876Z,24.30
2023-01-23T23:22:07.105Z,24.73
2023-01-23T23:24:34.815Z,26.38
2023-01-23T23:27:02.520Z,25.95
2023-01-23T23:29:30.332Z,24.33
2023-01-23T23:31:59.510Z,24.15
2023-01-23T23:34:27.235Z,26.58
2023-01-23T23:36:54.937Z,25.30
2023-01-23T23:39:22.601Z,24.73
2023-01-23T23:41:50.291Z,26.75
2023-01-23T23:44:17.948Z,28.17
2023-01-23T23:46:45.671Z,28.20
2023-01-23T23:49:18.105Z,29.38
2023-01-23T23:51:45.771Z,29.27
2023-01-23T23:54:13.437Z,28.90
2023-01-23T23:56:41.079Z,28.25
2023-01-23T23:59:08.812Z,29.05
